sensor_id;sensor_type;location;lat;lon;timestamp;temperature;humidity
75893;DHT22;64572;50.950;3.676;2023-03-30T00:00:02;14.80;96.60
75893;DHT22;64572;50.950;3.676;2023-03-30T00:02:39;14.70;96.70
75893;DHT22;64572;50.950;3.676;2023-03-30T00:05:08;14.70;96.70
75893;DHT22;64572;50.950;3.676;2023-03-30T00:07:50;14.60;97.00
75893;DHT22;64572;50.950;3.676;2023-03-30T00:10:16;14.60;96.90
75893;DHT22;64572;50.950;3.676;2023-03-30T00:12:43;14.60;97.00
75893;DHT22;64572;50.950;3.676;2023-03-30T00:15:13;14.60;97.10
75893;DHT22;64572;50.950;3.676;2023-03-30T00:17:40;14.50;97.20
75893;DHT22;64572;50.950;3.676;2023-03-30T00:20:08;14.50;97.30
75893;DHT22;64572;50.950;3.676;2023-03-30T00:22:37;14.40;97.30
75893;DHT22;64572;50.950;3.676;2023-03-30T00:25:16;14.30;97.60
75893;DHT22;64572;50.950;3.676;2023-03-30T00:27:42;14.30;97.90
75893;DHT22;64572;50.950;3.676;2023-03-30T00:30:11;14.30;97.80
75893;DHT22;64572;50.950;3.676;2023-03-30T00:32:38;14.20;97.80
75893;DHT22;64572;50.950;3.676;2023-03-30T00:35:13;14.10;97.80
75893;DHT22;64572;50.950;3.676;2023-03-30T00:41:13;14.00;98.60
75893;DHT22;64572;50.950;3.676;2023-03-30T00:47:02;13.90;98.30
75893;DHT22;64572;50.950;3.676;2023-03-30T00:53:15;13.80;98.50
75893;DHT22;64572;50.950;3.676;2023-03-30T00:59:04;13.80;98.60
75893;DHT22;64572;50.950;3.676;2023-03-30T01:04:55;13.70;98.60
75893;DHT22;64572;50.950;3.676;2023-03-30T01:10:46;13.70;98.80
75893;DHT22;64572;50.950;3.676;2023-03-30T01:28:13;13.10;99.90
75893;DHT22;64572;50.950;3.676;2023-03-30T01:31:13;13.10;99.90
75893;DHT22;64572;50.950;3.676;2023-03-30T01:46:01;13.70;98.70
75893;DHT22;64572;50.950;3.676;2023-03-30T01:52:09;14.00;97.80
75893;DHT22;64572;50.950;3.676;2023-03-30T01:54:42;13.90;97.70
75893;DHT22;64572;50.950;3.676;2023-03-30T01:57:21;14.00;97.60
75893;DHT22;64572;50.950;3.676;2023-03-30T02:00:00;14.00;97.50
75893;DHT22;64572;50.950;3.676;2023-03-30T02:02:38;14.00;97.40
75893;DHT22;64572;50.950;3.676;2023-03-30T02:05:06;14.10;97.20
75893;DHT22;64572;50.950;3.676;2023-03-30T02:07:34;14.10;96.90
75893;DHT22;64572;50.950;3.676;2023-03-30T02:13:26;14.20;96.80
75893;DHT22;64572;50.950;3.676;2023-03-30T02:15:58;14.20;96.70
75893;DHT22;64572;50.950;3.676;2023-03-30T02:18:26;14.30;96.80
75893;DHT22;64572;50.950;3.676;2023-03-30T02:20:52;14.30;96.10
75893;DHT22;64572;50.950;3.676;2023-03-30T02:23:22;14.40;96.20
75893;DHT22;64572;50.950;3.676;2023-03-30T02:25:49;14.30;96.50
75893;DHT22;64572;50.950;3.676;2023-03-30T02:28:15;14.20;96.70
75893;DHT22;64572;50.950;3.676;2023-03-30T02:30:43;14.20;97.00
75893;DHT22;64572;50.950;3.676;2023-03-30T02:33:18;14.10;97.20
75893;DHT22;64572;50.950;3.676;2023-03-30T02:39:04;14.10;97.20
75893;DHT22;64572;50.950;3.676;2023-03-30T02:50:22;14.20;97.00
75893;DHT22;64572;50.950;3.676;2023-03-30T02:53:14;14.20;97.10
75893;DHT22;64572;50.950;3.676;2023-03-30T02:58:41;14.30;97.50
75893;DHT22;64572;50.950;3.676;2023-03-30T03:07:38;14.40;97.30
75893;DHT22;64572;50.950;3.676;2023-03-30T03:10:06;14.30;97.20
75893;DHT22;64572;50.950;3.676;2023-03-30T03:12:33;14.40;97.10
75893;DHT22;64572;50.950;3.676;2023-03-30T03:14:59;14.30;97.20
75893;DHT22;64572;50.950;3.676;2023-03-30T03:17:28;14.20;97.50
75893;DHT22;64572;50.950;3.676;2023-03-30T03:20:00;14.20;97.70
75893;DHT22;64572;50.950;3.676;2023-03-30T03:22:26;14.10;97.50
75893;DHT22;64572;50.950;3.676;2023-03-30T03:24:52;14.00;98.00
75893;DHT22;64572;50.950;3.676;2023-03-30T03:27:18;13.90;98.00
75893;DHT22;64572;50.950;3.676;2023-03-30T03:29:43;13.90;98.10
75893;DHT22;64572;50.950;3.676;2023-03-30T03:32:09;13.80;98.40
75893;DHT22;64572;50.950;3.676;2023-03-30T03:34:35;13.80;98.60
75893;DHT22;64572;50.950;3.676;2023-03-30T03:37:01;13.80;98.70
75893;DHT22;64572;50.950;3.676;2023-03-30T03:39:29;13.70;99.10
75893;DHT22;64572;50.950;3.676;2023-03-30T03:41:55;13.70;99.30
75893;DHT22;64572;50.950;3.676;2023-03-30T03:47:34;13.60;99.90
75893;DHT22;64572;50.950;3.676;2023-03-30T03:50:00;13.70;99.90
75893;DHT22;64572;50.950;3.676;2023-03-30T03:52:28;13.60;99.90
75893;DHT22;64572;50.950;3.676;2023-03-30T03:54:55;13.70;99.90
75893;DHT22;64572;50.950;3.676;2023-03-30T03:57:21;13.60;99.90
75893;DHT22;64572;50.950;3.676;2023-03-30T03:59:48;13.60;99.90
75893;DHT22;64572;50.950;3.676;2023-03-30T04:02:14;13.60;99.90
75893;DHT22;64572;50.950;3.676;2023-03-30T04:04:40;13.50;99.90
75893;DHT22;64572;50.950;3.676;2023-03-30T04:07:05;13.50;99.90
75893;DHT22;64572;50.950;3.676;2023-03-30T04:09:31;13.50;99.90
75893;DHT22;64572;50.950;3.676;2023-03-30T04:11:57;13.50;99.90
75893;DHT22;64572;50.950;3.676;2023-03-30T04:14:23;13.50;99.90
75893;DHT22;64572;50.950;3.676;2023-03-30T04:16:48;13.30;99.90
75893;DHT22;64572;50.950;3.676;2023-03-30T04:19:16;13.00;99.90
75893;DHT22;64572;50.950;3.676;2023-03-30T04:21:41;12.90;99.90
75893;DHT22;64572;50.950;3.676;2023-03-30T04:24:11;12.80;99.90
75893;DHT22;64572;50.950;3.676;2023-03-30T04:26:37;12.70;99.90
75893;DHT22;64572;50.950;3.676;2023-03-30T04:29:03;12.60;99.90
75893;DHT22;64572;50.950;3.676;2023-03-30T04:31:31;12.60;99.90
75893;DHT22;64572;50.950;3.676;2023-03-30T04:33:59;12.50;99.90
75893;DHT22;64572;50.950;3.676;2023-03-30T04:36:27;12.40;99.90
75893;DHT22;64572;50.950;3.676;2023-03-30T04:38:53;12.40;99.90
75893;DHT22;64572;50.950;3.676;2023-03-30T04:41:30;12.30;99.90
75893;DHT22;64572;50.950;3.676;2023-03-30T04:44:07;12.30;99.90
75893;DHT22;64572;50.950;3.676;2023-03-30T04:46:34;12.30;99.90
75893;DHT22;64572;50.950;3.676;2023-03-30T04:49:00;12.30;99.90
75893;DHT22;64572;50.950;3.676;2023-03-30T04:51:27;12.30;99.90
75893;DHT22;64572;50.950;3.676;2023-03-30T04:53:52;12.30;99.90
75893;DHT22;64572;50.950;3.676;2023-03-30T04:56:18;12.30;99.90
75893;DHT22;64572;50.950;3.676;2023-03-30T04:58:44;12.30;99.90
75893;DHT22;64572;50.950;3.676;2023-03-30T05:01:10;12.30;99.90
75893;DHT22;64572;50.950;3.676;2023-03-30T05:03:35;12.30;99.90
75893;DHT22;64572;50.950;3.676;2023-03-30T05:06:01;12.30;99.90
75893;DHT22;64572;50.950;3.676;2023-03-30T05:08:28;12.30;99.90
75893;DHT22;64572;50.950;3.676;2023-03-30T05:10:53;12.30;99.90
75893;DHT22;64572;50.950;3.676;2023-03-30T05:13:19;12.20;99.90
75893;DHT22;64572;50.950;3.676;2023-03-30T05:15:52;12.20;99.90
75893;DHT22;64572;50.950;3.676;2023-03-30T05:18:17;12.20;99.90
75893;DHT22;64572;50.950;3.676;2023-03-30T05:20:43;12.20;99.90
75893;DHT22;64572;50.950;3.676;2023-03-30T05:23:09;12.10;99.90
75893;DHT22;64572;50.950;3.676;2023-03-30T05:25:34;12.30;99.90
75893;DHT22;64572;50.950;3.676;2023-03-30T05:28:00;12.20;99.90
75893;DHT22;64572;50.950;3.676;2023-03-30T05:30:26;12.10;99.90
75893;DHT22;64572;50.950;3.676;2023-03-30T05:32:52;12.00;99.90
75893;DHT22;64572;50.950;3.676;2023-03-30T05:35:18;12.10;99.90
75893;DHT22;64572;50.950;3.676;2023-03-30T05:37:44;12.20;99.90
75893;DHT22;64572;50.950;3.676;2023-03-30T05:40:10;12.10;99.90
75893;DHT22;64572;50.950;3.676;2023-03-30T05:42:35;12.20;99.90
75893;DHT22;64572;50.950;3.676;2023-03-30T05:45:02;12.20;99.90
75893;DHT22;64572;50.950;3.676;2023-03-30T05:47:28;12.20;99.90
75893;DHT22;64572;50.950;3.676;2023-03-30T05:49:54;12.20;99.90
75893;DHT22;64572;50.950;3.676;2023-03-30T05:52:20;12.20;99.90
75893;DHT22;64572;50.950;3.676;2023-03-30T05:54:46;12.20;99.90
75893;DHT22;64572;50.950;3.676;2023-03-30T05:57:11;12.30;99.90
75893;DHT22;64572;50.950;3.676;2023-03-30T05:59:37;12.20;99.90
75893;DHT22;64572;50.950;3.676;2023-03-30T06:02:03;12.20;99.90
75893;DHT22;64572;50.950;3.676;2023-03-30T06:04:31;12.20;99.90
75893;DHT22;64572;50.950;3.676;2023-03-30T06:06:57;12.30;99.90
75893;DHT22;64572;50.950;3.676;2023-03-30T06:09:22;12.30;99.90
75893;DHT22;64572;50.950;3.676;2023-03-30T06:11:49;12.20;99.90
75893;DHT22;64572;50.950;3.676;2023-03-30T06:14:16;12.20;99.90
75893;DHT22;64572;50.950;3.676;2023-03-30T06:16:41;12.30;99.90
75893;DHT22;64572;50.950;3.676;2023-03-30T06:19:07;12.30;99.90
75893;DHT22;64572;50.950;3.676;2023-03-30T06:21:33;12.40;99.90
75893;DHT22;64572;50.950;3.676;2023-03-30T06:23:58;12.50;99.90
75893;DHT22;64572;50.950;3.676;2023-03-30T06:26:24;12.60;99.90
75893;DHT22;64572;50.950;3.676;2023-03-30T06:28:50;12.60;99.90
75893;DHT22;64572;50.950;3.676;2023-03-30T06:31:16;12.60;99.90
75893;DHT22;64572;50.950;3.676;2023-03-30T06:33:42;12.60;99.90
75893;DHT22;64572;50.950;3.676;2023-03-30T06:36:12;12.60;99.90
75893;DHT22;64572;50.950;3.676;2023-03-30T06:38:38;12.60;99.90
75893;DHT22;64572;50.950;3.676;2023-03-30T06:41:05;12.60;99.90
75893;DHT22;64572;50.950;3.676;2023-03-30T06:43:33;12.60;99.90
75893;DHT22;64572;50.950;3.676;2023-03-30T06:45:59;12.60;99.90
75893;DHT22;64572;50.950;3.676;2023-03-30T06:48:25;12.50;99.90
75893;DHT22;64572;50.950;3.676;2023-03-30T06:50:51;12.50;99.90
75893;DHT22;64572;50.950;3.676;2023-03-30T06:53:18;12.40;99.90
75893;DHT22;64572;50.950;3.676;2023-03-30T06:55:56;12.30;99.90
75893;DHT22;64572;50.950;3.676;2023-03-30T06:58:23;12.30;99.90
75893;DHT22;64572;50.950;3.676;2023-03-30T07:00:49;12.40;99.90
75893;DHT22;64572;50.950;3.676;2023-03-30T07:03:16;12.40;99.90
75893;DHT22;64572;50.950;3.676;2023-03-30T07:05:47;12.40;99.90
75893;DHT22;64572;50.950;3.676;2023-03-30T07:08:13;12.50;99.90
75893;DHT22;64572;50.950;3.676;2023-03-30T07:10:39;12.70;99.90
75893;DHT22;64572;50.950;3.676;2023-03-30T07:13:05;12.80;99.90
75893;DHT22;64572;50.950;3.676;2023-03-30T07:15:32;12.80;99.90
75893;DHT22;64572;50.950;3.676;2023-03-30T07:17:58;13.00;99.90
75893;DHT22;64572;50.950;3.676;2023-03-30T07:20:24;13.30;99.90
75893;DHT22;64572;50.950;3.676;2023-03-30T07:22:49;13.50;99.90
75893;DHT22;64572;50.950;3.676;2023-03-30T07:25:16;13.40;99.90
75893;DHT22;64572;50.950;3.676;2023-03-30T07:27:41;13.40;99.90
75893;DHT22;64572;50.950;3.676;2023-03-30T07:30:08;13.10;99.90
75893;DHT22;64572;50.950;3.676;2023-03-30T07:32:35;12.90;99.90
75893;DHT22;64572;50.950;3.676;2023-03-30T07:35:01;12.80;99.90
75893;DHT22;64572;50.950;3.676;2023-03-30T07:37:27;12.80;99.90
75893;DHT22;64572;50.950;3.676;2023-03-30T07:39:56;12.70;99.90
75893;DHT22;64572;50.950;3.676;2023-03-30T07:42:22;12.70;99.90
75893;DHT22;64572;50.950;3.676;2023-03-30T07:44:48;13.00;99.90
75893;DHT22;64572;50.950;3.676;2023-03-30T07:47:13;13.10;99.90
75893;DHT22;64572;50.950;3.676;2023-03-30T07:49:39;13.00;99.90
75893;DHT22;64572;50.950;3.676;2023-03-30T07:52:05;12.90;99.90
75893;DHT22;64572;50.950;3.676;2023-03-30T07:54:31;12.90;99.90
75893;DHT22;64572;50.950;3.676;2023-03-30T07:56:57;12.70;99.90
75893;DHT22;64572;50.950;3.676;2023-03-30T07:59:23;12.60;99.90
75893;DHT22;64572;50.950;3.676;2023-03-30T08:01:49;12.60;99.90
75893;DHT22;64572;50.950;3.676;2023-03-30T08:04:17;12.90;99.90
75893;DHT22;64572;50.950;3.676;2023-03-30T08:06:43;13.10;99.90
75893;DHT22;64572;50.950;3.676;2023-03-30T08:09:09;13.20;99.90
75893;DHT22;64572;50.950;3.676;2023-03-30T08:11:35;13.10;99.90
75893;DHT22;64572;50.950;3.676;2023-03-30T08:14:02;13.30;99.90
75893;DHT22;64572;50.950;3.676;2023-03-30T08:16:28;13.30;99.90
75893;DHT22;64572;50.950;3.676;2023-03-30T08:18:54;13.40;99.90
75893;DHT22;64572;50.950;3.676;2023-03-30T08:21:21;13.50;99.90
75893;DHT22;64572;50.950;3.676;2023-03-30T08:23:50;13.30;99.90
75893;DHT22;64572;50.950;3.676;2023-03-30T08:26:15;13.40;99.90
75893;DHT22;64572;50.950;3.676;2023-03-30T08:28:42;13.50;99.90
75893;DHT22;64572;50.950;3.676;2023-03-30T08:31:08;13.70;99.90
75893;DHT22;64572;50.950;3.676;2023-03-30T08:33:35;13.60;99.90
75893;DHT22;64572;50.950;3.676;2023-03-30T08:36:02;13.70;99.90
75893;DHT22;64572;50.950;3.676;2023-03-30T08:38:27;13.70;99.90
75893;DHT22;64572;50.950;3.676;2023-03-30T08:40:54;13.80;99.90
75893;DHT22;64572;50.950;3.676;2023-03-30T08:43:35;13.90;99.90
75893;DHT22;64572;50.950;3.676;2023-03-30T08:46:06;13.70;99.90
75893;DHT22;64572;50.950;3.676;2023-03-30T08:48:36;13.60;99.90
75893;DHT22;64572;50.950;3.676;2023-03-30T08:51:06;13.60;99.90
75893;DHT22;64572;50.950;3.676;2023-03-30T08:53:33;13.60;99.90
75893;DHT22;64572;50.950;3.676;2023-03-30T08:56:12;13.80;99.90
75893;DHT22;64572;50.950;3.676;2023-03-30T09:01:57;14.60;99.90
75893;DHT22;64572;50.950;3.676;2023-03-30T09:07:16;13.60;99.90
75893;DHT22;64572;50.950;3.676;2023-03-30T09:09:44;13.60;99.90
75893;DHT22;64572;50.950;3.676;2023-03-30T09:15:05;13.80;99.90
75893;DHT22;64572;50.950;3.676;2023-03-30T09:17:38;14.10;99.90
75893;DHT22;64572;50.950;3.676;2023-03-30T09:20:26;14.00;99.90
75893;DHT22;64572;50.950;3.676;2023-03-30T09:22:54;15.00;99.90
75893;DHT22;64572;50.950;3.676;2023-03-30T09:31:13;14.80;99.90
75893;DHT22;64572;50.950;3.676;2023-03-30T09:34:05;14.70;99.90
75893;DHT22;64572;50.950;3.676;2023-03-30T09:39:34;14.30;99.90
75893;DHT22;64572;50.950;3.676;2023-03-30T09:45:27;13.70;99.90
75893;DHT22;64572;50.950;3.676;2023-03-30T09:47:55;13.50;99.90
75893;DHT22;64572;50.950;3.676;2023-03-30T09:50:25;13.10;99.90
75893;DHT22;64572;50.950;3.676;2023-03-30T09:52:59;13.20;99.90
75893;DHT22;64572;50.950;3.676;2023-03-30T09:55:35;13.50;99.90
75893;DHT22;64572;50.950;3.676;2023-03-30T09:58:17;15.00;99.90
75893;DHT22;64572;50.950;3.676;2023-03-30T10:00:43;14.60;99.90
75893;DHT22;64572;50.950;3.676;2023-03-30T10:03:19;14.40;99.90
75893;DHT22;64572;50.950;3.676;2023-03-30T10:06:05;14.60;99.90
75893;DHT22;64572;50.950;3.676;2023-03-30T10:08:36;15.10;99.90
75893;DHT22;64572;50.950;3.676;2023-03-30T10:11:04;15.30;99.90
75893;DHT22;64572;50.950;3.676;2023-03-30T10:13:35;15.60;98.80
75893;DHT22;64572;50.950;3.676;2023-03-30T10:16:07;14.90;99.90
75893;DHT22;64572;50.950;3.676;2023-03-30T10:18:41;14.10;99.90
75893;DHT22;64572;50.950;3.676;2023-03-30T10:21:17;14.20;99.90
75893;DHT22;64572;50.950;3.676;2023-03-30T10:23:45;14.00;99.90
75893;DHT22;64572;50.950;3.676;2023-03-30T10:28:57;14.00;99.90
75893;DHT22;64572;50.950;3.676;2023-03-30T10:31:25;14.00;99.90
75893;DHT22;64572;50.950;3.676;2023-03-30T10:33:56;14.10;99.90
75893;DHT22;64572;50.950;3.676;2023-03-30T10:36:37;14.50;99.90
75893;DHT22;64572;50.950;3.676;2023-03-30T10:39:11;14.60;99.90
75893;DHT22;64572;50.950;3.676;2023-03-30T10:41:40;14.50;99.90
75893;DHT22;64572;50.950;3.676;2023-03-30T10:44:32;14.30;99.90
75893;DHT22;64572;50.950;3.676;2023-03-30T10:55:09;15.10;99.90
75893;DHT22;64572;50.950;3.676;2023-03-30T11:03:23;15.00;99.90
75893;DHT22;64572;50.950;3.676;2023-03-30T11:05:53;14.80;99.90
75893;DHT22;64572;50.950;3.676;2023-03-30T11:08:25;15.30;99.90
75893;DHT22;64572;50.950;3.676;2023-03-30T11:10:55;16.00;97.50
75893;DHT22;64572;50.950;3.676;2023-03-30T11:15:56;16.50;96.10
75893;DHT22;64572;50.950;3.676;2023-03-30T11:18:36;16.20;96.20
75893;DHT22;64572;50.950;3.676;2023-03-30T11:21:05;17.60;93.00
75893;DHT22;64572;50.950;3.676;2023-03-30T11:26:10;17.30;92.20
75893;DHT22;64572;50.950;3.676;2023-03-30T11:34:20;17.10;91.10
75893;DHT22;64572;50.950;3.676;2023-03-30T11:39:31;15.50;95.40
75893;DHT22;64572;50.950;3.676;2023-03-30T11:42:14;16.30;95.60
75893;DHT22;64572;50.950;3.676;2023-03-30T11:44:41;16.90;94.30
75893;DHT22;64572;50.950;3.676;2023-03-30T11:49:49;17.20;93.10
75893;DHT22;64572;50.950;3.676;2023-03-30T11:52:24;17.60;92.60
75893;DHT22;64572;50.950;3.676;2023-03-30T11:55:13;18.20;89.20
75893;DHT22;64572;50.950;3.676;2023-03-30T12:00:47;18.00;89.90
75893;DHT22;64572;50.950;3.676;2023-03-30T12:03:37;17.50;91.60
75893;DHT22;64572;50.950;3.676;2023-03-30T12:06:26;16.70;93.20
75893;DHT22;64572;50.950;3.676;2023-03-30T12:17:16;15.40;95.10
75893;DHT22;64572;50.950;3.676;2023-03-30T12:25:48;13.40;99.90
75893;DHT22;64572;50.950;3.676;2023-03-30T12:28:22;12.90;99.90
75893;DHT22;64572;50.950;3.676;2023-03-30T12:30:59;13.90;99.90
75893;DHT22;64572;50.950;3.676;2023-03-30T12:36:21;15.30;99.90
75893;DHT22;64572;50.950;3.676;2023-03-30T12:38:52;14.90;99.90
75893;DHT22;64572;50.950;3.676;2023-03-30T12:41:24;15.00;99.90
75893;DHT22;64572;50.950;3.676;2023-03-30T12:55:03;15.80;98.50
75893;DHT22;64572;50.950;3.676;2023-03-30T13:05:25;15.80;99.60
75893;DHT22;64572;50.950;3.676;2023-03-30T13:07:54;15.60;99.30
75893;DHT22;64572;50.950;3.676;2023-03-30T13:12:55;15.00;99.90
75893;DHT22;64572;50.950;3.676;2023-03-30T13:15:36;15.50;98.60
75893;DHT22;64572;50.950;3.676;2023-03-30T13:18:22;15.00;99.40
75893;DHT22;64572;50.950;3.676;2023-03-30T13:25:50;15.80;98.40
75893;DHT22;64572;50.950;3.676;2023-03-30T13:28:43;16.30;97.60
75893;DHT22;64572;50.950;3.676;2023-03-30T13:37:05;15.00;99.90
75893;DHT22;64572;50.950;3.676;2023-03-30T13:39:55;15.10;99.90
75893;DHT22;64572;50.950;3.676;2023-03-30T13:48:02;16.50;99.90
75893;DHT22;64572;50.950;3.676;2023-03-30T13:50:33;16.90;99.90
75893;DHT22;64572;50.950;3.676;2023-03-30T13:53:02;17.30;95.90
75893;DHT22;64572;50.950;3.676;2023-03-30T13:55:41;16.50;98.70
75893;DHT22;64572;50.950;3.676;2023-03-30T13:58:22;16.20;97.20
75893;DHT22;64572;50.950;3.676;2023-03-30T14:01:10;15.60;98.80
75893;DHT22;64572;50.950;3.676;2023-03-30T14:03:50;15.60;98.00
75893;DHT22;64572;50.950;3.676;2023-03-30T14:06:20;15.20;99.40
75893;DHT22;64572;50.950;3.676;2023-03-30T14:14:03;15.90;99.50
75893;DHT22;64572;50.950;3.676;2023-03-30T14:16:35;16.80;95.90
75893;DHT22;64572;50.950;3.676;2023-03-30T14:21:42;16.60;96.90
75893;DHT22;64572;50.950;3.676;2023-03-30T14:24:13;15.90;98.20
75893;DHT22;64572;50.950;3.676;2023-03-30T14:26:40;15.70;99.80
75893;DHT22;64572;50.950;3.676;2023-03-30T14:29:13;15.60;98.50
75893;DHT22;64572;50.950;3.676;2023-03-30T14:31:41;15.40;98.50
75893;DHT22;64572;50.950;3.676;2023-03-30T14:34:25;15.30;99.10
75893;DHT22;64572;50.950;3.676;2023-03-30T14:36:53;15.20;99.90
75893;DHT22;64572;50.950;3.676;2023-03-30T14:39:21;14.80;99.90
75893;DHT22;64572;50.950;3.676;2023-03-30T14:41:49;14.30;99.90
75893;DHT22;64572;50.950;3.676;2023-03-30T14:44:17;14.60;99.90
75893;DHT22;64572;50.950;3.676;2023-03-30T14:46:46;16.00;99.60
75893;DHT22;64572;50.950;3.676;2023-03-30T14:49:17;16.60;98.30
75893;DHT22;64572;50.950;3.676;2023-03-30T14:51:50;16.40;97.60
75893;DHT22;64572;50.950;3.676;2023-03-30T14:54:19;16.60;97.00
75893;DHT22;64572;50.950;3.676;2023-03-30T14:56:51;16.70;97.10
75893;DHT22;64572;50.950;3.676;2023-03-30T14:59:18;17.00;96.00
75893;DHT22;64572;50.950;3.676;2023-03-30T15:01:44;16.60;97.10
75893;DHT22;64572;50.950;3.676;2023-03-30T15:04:13;15.90;96.50
75893;DHT22;64572;50.950;3.676;2023-03-30T15:06:40;16.50;97.90
75893;DHT22;64572;50.950;3.676;2023-03-30T15:09:13;16.90;97.40
75893;DHT22;64572;50.950;3.676;2023-03-30T15:11:40;16.40;96.40
75893;DHT22;64572;50.950;3.676;2023-03-30T15:14:07;16.30;97.50
75893;DHT22;64572;50.950;3.676;2023-03-30T15:16:34;15.90;98.40
75893;DHT22;64572;50.950;3.676;2023-03-30T15:21:50;15.60;99.90
75893;DHT22;64572;50.950;3.676;2023-03-30T15:24:19;15.40;99.70
75893;DHT22;64572;50.950;3.676;2023-03-30T15:26:48;15.30;99.90
75893;DHT22;64572;50.950;3.676;2023-03-30T15:29:17;15.10;99.90
75893;DHT22;64572;50.950;3.676;2023-03-30T15:31:43;15.30;99.90
75893;DHT22;64572;50.950;3.676;2023-03-30T15:34:16;16.00;98.20
75893;DHT22;64572;50.950;3.676;2023-03-30T15:36:42;15.40;99.20
75893;DHT22;64572;50.950;3.676;2023-03-30T15:39:24;15.10;99.90
75893;DHT22;64572;50.950;3.676;2023-03-30T15:44:21;15.20;99.90
75893;DHT22;64572;50.950;3.676;2023-03-30T15:46:53;15.90;98.30
75893;DHT22;64572;50.950;3.676;2023-03-30T15:49:21;16.20;97.50
75893;DHT22;64572;50.950;3.676;2023-03-30T15:51:54;15.50;98.10
75893;DHT22;64572;50.950;3.676;2023-03-30T15:54:42;15.20;99.30
75893;DHT22;64572;50.950;3.676;2023-03-30T15:59:40;15.10;98.50
75893;DHT22;64572;50.950;3.676;2023-03-30T16:02:20;15.10;98.80
75893;DHT22;64572;50.950;3.676;2023-03-30T16:04:47;15.80;97.80
75893;DHT22;64572;50.950;3.676;2023-03-30T16:07:21;16.50;96.00
75893;DHT22;64572;50.950;3.676;2023-03-30T16:09:47;16.60;95.00
75893;DHT22;64572;50.950;3.676;2023-03-30T16:12:16;16.80;95.50
75893;DHT22;64572;50.950;3.676;2023-03-30T16:14:42;16.90;94.90
75893;DHT22;64572;50.950;3.676;2023-03-30T16:17:10;16.70;94.00
75893;DHT22;64572;50.950;3.676;2023-03-30T16:19:40;16.60;93.00
75893;DHT22;64572;50.950;3.676;2023-03-30T16:22:11;16.60;94.10
75893;DHT22;64572;50.950;3.676;2023-03-30T16:27:58;16.60;94.30
75893;DHT22;64572;50.950;3.676;2023-03-30T16:30:32;16.40;94.40
75893;DHT22;64572;50.950;3.676;2023-03-30T16:33:00;16.20;94.40
75893;DHT22;64572;50.950;3.676;2023-03-30T16:35:26;16.20;95.50
75893;DHT22;64572;50.950;3.676;2023-03-30T16:37:51;16.30;94.00
75893;DHT22;64572;50.950;3.676;2023-03-30T16:46:12;16.10;95.00
75893;DHT22;64572;50.950;3.676;2023-03-30T16:48:39;15.90;95.30
75893;DHT22;64572;50.950;3.676;2023-03-30T16:54:28;15.30;96.70
75893;DHT22;64572;50.950;3.676;2023-03-30T16:56:54;15.20;96.90
75893;DHT22;64572;50.950;3.676;2023-03-30T16:59:23;15.10;96.20
75893;DHT22;64572;50.950;3.676;2023-03-30T17:01:48;15.00;96.60
75893;DHT22;64572;50.950;3.676;2023-03-30T17:04:15;15.20;96.50
75893;DHT22;64572;50.950;3.676;2023-03-30T17:06:40;15.20;96.40
75893;DHT22;64572;50.950;3.676;2023-03-30T17:09:12;15.10;96.50
75893;DHT22;64572;50.950;3.676;2023-03-30T17:11:38;15.00;97.10
75893;DHT22;64572;50.950;3.676;2023-03-30T17:14:04;14.90;98.30
75893;DHT22;64572;50.950;3.676;2023-03-30T17:16:30;15.00;97.10
75893;DHT22;64572;50.950;3.676;2023-03-30T17:18:56;15.10;97.50
75893;DHT22;64572;50.950;3.676;2023-03-30T17:21:25;15.00;97.70
75893;DHT22;64572;50.950;3.676;2023-03-30T17:36:47;14.40;99.90
75893;DHT22;64572;50.950;3.676;2023-03-30T17:39:13;14.40;99.90
75893;DHT22;64572;50.950;3.676;2023-03-30T17:41:39;14.30;99.70
75893;DHT22;64572;50.950;3.676;2023-03-30T17:44:19;14.30;99.60
75893;DHT22;64572;50.950;3.676;2023-03-30T17:50:22;14.40;99.20
75893;DHT22;64572;50.950;3.676;2023-03-30T17:56:17;14.30;98.70
75893;DHT22;64572;50.950;3.676;2023-03-30T17:58:43;14.20;98.90
75893;DHT22;64572;50.950;3.676;2023-03-30T18:01:09;14.10;99.20
75893;DHT22;64572;50.950;3.676;2023-03-30T18:03:44;14.10;99.30
75893;DHT22;64572;50.950;3.676;2023-03-30T18:06:10;14.00;99.30
75893;DHT22;64572;50.950;3.676;2023-03-30T18:08:36;14.00;99.00
75893;DHT22;64572;50.950;3.676;2023-03-30T18:11:03;14.00;99.10
75893;DHT22;64572;50.950;3.676;2023-03-30T18:13:29;14.00;99.20
75893;DHT22;64572;50.950;3.676;2023-03-30T18:16:00;13.80;99.70
75893;DHT22;64572;50.950;3.676;2023-03-30T18:18:29;13.90;99.20
75893;DHT22;64572;50.950;3.676;2023-03-30T18:20:57;13.90;99.30
75893;DHT22;64572;50.950;3.676;2023-03-30T18:23:23;13.80;99.20
75893;DHT22;64572;50.950;3.676;2023-03-30T18:25:50;13.80;98.80
75893;DHT22;64572;50.950;3.676;2023-03-30T18:28:18;13.80;98.50
75893;DHT22;64572;50.950;3.676;2023-03-30T18:30:44;13.80;98.70
75893;DHT22;64572;50.950;3.676;2023-03-30T18:33:10;13.70;98.90
75893;DHT22;64572;50.950;3.676;2023-03-30T18:35:36;13.60;99.40
75893;DHT22;64572;50.950;3.676;2023-03-30T18:38:03;13.60;99.30
75893;DHT22;64572;50.950;3.676;2023-03-30T18:40:33;13.60;99.40
75893;DHT22;64572;50.950;3.676;2023-03-30T18:43:01;13.60;99.40
75893;DHT22;64572;50.950;3.676;2023-03-30T18:45:29;13.60;99.20
75893;DHT22;64572;50.950;3.676;2023-03-30T18:47:57;13.60;99.30
75893;DHT22;64572;50.950;3.676;2023-03-30T18:52:48;13.50;99.80
75893;DHT22;64572;50.950;3.676;2023-03-30T18:55:15;13.40;99.90
75893;DHT22;64572;50.950;3.676;2023-03-30T18:57:41;13.30;99.90
75893;DHT22;64572;50.950;3.676;2023-03-30T19:00:18;13.30;99.90
75893;DHT22;64572;50.950;3.676;2023-03-30T19:02:44;13.30;99.90
75893;DHT22;64572;50.950;3.676;2023-03-30T19:05:10;13.30;99.90
75893;DHT22;64572;50.950;3.676;2023-03-30T19:07:35;13.20;99.90
75893;DHT22;64572;50.950;3.676;2023-03-30T19:10:01;13.10;99.90
75893;DHT22;64572;50.950;3.676;2023-03-30T19:12:27;13.00;99.90
75893;DHT22;64572;50.950;3.676;2023-03-30T19:14:52;12.90;99.90
75893;DHT22;64572;50.950;3.676;2023-03-30T19:17:18;12.80;99.90
75893;DHT22;64572;50.950;3.676;2023-03-30T19:19:44;12.70;99.90
75893;DHT22;64572;50.950;3.676;2023-03-30T19:22:09;12.80;99.90
75893;DHT22;64572;50.950;3.676;2023-03-30T19:27:59;12.70;99.90
75893;DHT22;64572;50.950;3.676;2023-03-30T19:30:26;12.60;99.90
75893;DHT22;64572;50.950;3.676;2023-03-30T19:32:56;12.50;99.90
75893;DHT22;64572;50.950;3.676;2023-03-30T19:35:23;12.50;99.90
75893;DHT22;64572;50.950;3.676;2023-03-30T19:37:49;12.50;99.90
75893;DHT22;64572;50.950;3.676;2023-03-30T19:40:16;12.40;99.90
75893;DHT22;64572;50.950;3.676;2023-03-30T19:42:43;12.40;99.90
75893;DHT22;64572;50.950;3.676;2023-03-30T19:45:10;12.30;99.90
75893;DHT22;64572;50.950;3.676;2023-03-30T19:47:36;12.20;99.90